This is the latest recevied weather packets stored in our database for station/object SV2BZQ-2. If no packets are shown the sender has not sent any weather packets the latest 10 day(s).
| Time | Temp. | Humidity | Pressure | Rain* | Wind** | Luminosity | Snow |
|---|---|---|---|---|---|---|---|
| 1777379374 | 22.22° C | 58% | 1015.3 hPa | 0 mm | - | 728 W/m² | - |
| 1777378164 | 21.67° C | 61% | 1015.4 hPa | 0 mm | - | 761 W/m² | - |
| 1777377566 | 22.22° C | 59% | 1015.5 hPa | 0 mm | - | 777 W/m² | - |
| 1777376056 | 22.22° C | 59% | 1015.6 hPa | 0 mm | - | 810 W/m² | - |
| 1777375749 | 21.67° C | 60% | 1015.6 hPa | 0 mm | - | 816 W/m² | - |
| 1777375423 | 22.22° C | 58% | 1015.6 hPa | 0 mm | - | 821 W/m² | - |
| 1777374222 | 22.22° C | 57% | 1015.9 hPa | 0 mm | - | 837 W/m² | - |
| 1777373925 | 22.22° C | 57% | 1015.9 hPa | 0 mm | - | 837 W/m² | - |
| 1777372711 | 22.22° C | 55% | 1016.2 hPa | 0 mm | - | 842 W/m² | - |
| 1777372231 | 21.67° C | 53% | 1016.2 hPa | 0 mm | - | 786 W/m² | - |
| 1777368793 | 21.67° C | 54% | 1017 hPa | 0 mm | - | 824 W/m² | - |
| 1777368028 | 21.11° C | 60% | 1017.4 hPa | 0 mm | - | 789 W/m² | - |
| 1777367456 | 20.56° C | 61% | 1017.6 hPa | 0 mm | - | 724 W/m² | - |
| 1777359129 | 15.56° C | 89% | 1017.6 hPa | 0 mm | - | 462 W/m² | - |
| 1777357881 | 13.89° C | 92% | 1017.6 hPa | 0 mm | - | 408 W/m² | - |
| 1777357325 | 13.33° C | 92% | 1017.7 hPa | 0 mm | - | 390 W/m² | - |
| 1777355105 | 11.11° C | 93% | 1017.5 hPa | 0 mm | - | 288 W/m² | - |
| 1777353826 | 10° C | 92% | 1017.3 hPa | 0 mm | - | 223 W/m² | - |
| 1777349031 | 8.89° C | 90% | 1016.7 hPa | 0 mm | - | 12 W/m² | - |
| 1777345298 | 10° C | 90% | 1016.8 hPa | 0 mm | - | 0 W/m² | - |
| 1777343233 | 10° C | 89% | 1017.1 hPa | 0 mm | - | 0 W/m² | - |
| 1777341961 | 10.56° C | 89% | 1017.2 hPa | 0 mm | - | 0 W/m² | - |
| 1777341341 | 10.56° C | 89% | 1017.3 hPa | 0 mm | - | 0 W/m² | - |
| 1777341072 | 10.56° C | 89% | 1017.3 hPa | 0 mm | - | 0 W/m² | - |
| 1777338105 | 11.11° C | 87% | 1017.4 hPa | 0 mm | - | 0 W/m² | - |
* Rain latest hour (hover to see other rain measurements)
** Current wind speed in m/s (hover to see current wind gust speed)